Latest Weather Observations for Charles Point

IDD60901

Issued at 6:41 pm CST Tuesday 26 January 2021 (issued every 10 minutes, with the page automatically refreshed every 10 minutes)

About weather observations | Map of Darwin area stations | Latest observations for Darwin area | Other Formats
Station Details ID: 014031 Name: CHARLES POINT Lat: -12.39 Lon: 130.63 Height: 14.0 m
Data from the previous 72 hours. | See also: Recent months for locations in Northern Territory
Date/Time
CST
Temp
°C
App
Temp
°C
Dew
Point
°C
Rel
Hum
%
Delta-T
°C
Wind Press
QNH
hPa
Press
MSL
hPa
Rain since
9am
mm
Dir  Spd
km/h
Gust
km/h
Spd
kts
Gust
kts
26/06:30pm 26.2 31.8 25.7 97 0.4 S 7 13 4 7 1001.6 1001.5 1.6
26/06:00pm 26.1 31.2 25.6 97 0.4 S 9 15 5 8 1001.2 1001.1 1.6
26/05:30pm 26.1 30.5 25.6 97 0.4 SSW 13 24 7 13 1001.3 1001.2 1.6
26/05:00pm 28.9 36.1 27.3 91 1.2 W 4 9 2 5 1001.2 1001.1 1.6
26/04:30pm 28.6 35.2 27.0 91 1.2 SSW 6 9 3 5 1001.2 1001.1 1.6
26/04:00pm 27.9 32.5 25.9 89 1.4 S 13 20 7 11 1001.1 1001.0 1.6
26/03:30pm 29.4 34.1 27.2 88 1.6 WNW 17 24 9 13 1001.2 1001.1 1.6
26/03:00pm 29.5 35.0 27.3 88 1.6 W 13 20 7 11 1001.5 1001.4 1.6
26/02:30pm 29.9 36.3 27.5 87 1.7 W 9 17 5 9 1001.9 1001.8 1.6
26/02:00pm 29.2 36.4 27.8 92 1.0 WSW 6 13 3 7 1002.5 1002.4 1.6
26/01:30pm 28.5 33.8 26.5 89 1.4 SW 11 20 6 11 1002.9 1002.7 1.6
26/01:00pm 28.0 32.9 25.8 88 1.6 SSW 11 24 6 13 1003.2 1003.0 1.6
26/12:30pm 28.4 32.9 25.8 86 1.8 SSW 13 24 7 13 1003.5 1003.3 1.6
26/12:00pm 28.5 34.0 26.7 90 1.3 WSW 11 28 6 15 1003.4 1003.2 1.6
26/11:30am 28.6 33.4 26.8 90 1.3 WSW 15 26 8 14 1003.5 1003.3 1.4
26/11:00am 28.0 34.4 27.5 97 0.4 SW 9 20 5 11 1003.7 1003.5 1.4
26/10:30am 27.6 33.7 27.1 97 0.4 SW 9 22 5 12 1003.7 1003.5 1.4
26/10:00am 26.6 32.6 26.3 98 0.2 WSW 7 17 4 9 1003.8 1003.6 1.4
26/09:30am 27.7 34.3 27.2 97 0.4 SSW 7 17 4 9 1003.8 1003.6 0.0
26/09:00am 28.5 35.0 27.6 95 0.7 WSW 9 20 5 11 1003.6 1003.4 52.4
26/08:30am 28.1 34.4 27.4 96 0.5 WSW 9 19 5 10 1003.8 1003.6 52.4
26/08:00am 28.0 34.1 27.1 95 0.6 WSW 9 19 5 10 1003.8 1003.6 52.4
26/07:30am 27.7 33.2 26.8 95 0.6 W 11 19 6 10 1003.6 1003.4 52.4
26/07:00am 27.1 33.3 26.6 97 0.4 W 7 13 4 7 1003.2 1003.0 52.4
26/06:30am 26.3 29.5 25.8 97 0.4 WNW 20 33 11 18 1003.2 1003.0 52.4
26/06:00am 27.0 32.7 26.5 97 0.4 WSW 9 19 5 10 1003.3 1003.1 52.4
26/05:30am 26.8 32.8 26.3 97 0.4 WSW 7 13 4 7 1003.1 1002.9 52.4
26/05:00am 26.6 32.6 26.1 97 0.4 WSW 6 11 3 6 1002.9 1002.7 52.4
26/04:30am 26.2 32.0 25.7 97 0.4 WSW 6 11 3 6 1002.6 1002.5 52.4
26/04:00am 25.9 31.5 25.4 97 0.4 WSW 6 9 3 5 1002.5 1002.4 52.4
26/03:30am 26.4 32.1 25.9 97 0.4 W 7 13 4 7 1002.8 1002.6 52.2
26/03:00am 26.1 30.8 25.6 97 0.4 W 11 24 6 13 1002.8 1002.6 52.2
26/02:30am 25.8 30.9 25.5 98 0.2 WSW 9 19 5 10 1002.3 1002.2 52.2
26/02:00am 25.2 30.3 24.9 98 0.2 WSW 7 15 4 8 1003.0 1002.8 52.2
26/01:30am 25.3 30.0 25.0 98 0.2 WSW 9 19 5 10 1003.6 1003.4 52.2
26/01:00am 25.1 29.7 24.8 98 0.2 WSW 9 19 5 10 1004.3 1004.1 52.2
26/12:30am 24.5 28.8 24.2 98 0.2 WSW 9 19 5 10 1004.8 1004.6 51.6
26/12:00am 25.3 28.5 25.0 98 0.2 WSW 17 32 9 17 1005.5 1005.3 50.0
 
Date/Time
CST
Temp
°C
App
Temp
°C
Dew
Point
°C
Rel
Hum
%
Delta-T
°C
Wind Press
QNH
hPa
Press
MSL
hPa
Rain since
9am
mm
Dir  Spd
km/h
Gust
km/h
Spd
kts
Gust
kts
25/11:30pm 25.3 29.3 25.1 99 0.1 WSW 13 26 7 14 1005.9 1005.7 48.2
25/11:00pm 24.7 28.3 24.4 98 0.2 WSW 13 26 7 14 1006.0 1005.8 46.0
25/10:30pm 24.7 28.0 24.5 99 0.1 W 15 32 8 17 1005.9 1005.7 43.4
25/10:00pm 24.8 29.8 24.5 98 0.2 WSW 6 13 3 7 1005.5 1005.3 31.6
25/09:30pm 24.9 28.3 24.6 98 0.2 W 15 24 8 13 1005.6 1005.4 28.0
25/09:00pm 25.6 27.7 25.3 98 0.2 W 24 43 13 23 1005.2 1005.0 25.4
25/08:30pm 24.7 27.6 24.4 98 0.2 W 17 32 9 17 1004.6 1004.4 22.4
25/08:00pm 25.5 30.0 25.2 98 0.2 WSW 11 32 6 17 1004.4 1004.2 21.2
25/07:30pm 26.5 27.9 26.0 97 0.4 WNW 30 39 16 21 1003.8 1003.6 20.6
25/07:00pm 27.1 30.4 26.6 97 0.4 NW 22 32 12 17 1003.5 1003.3 20.6
25/06:30pm 27.3 31.1 26.8 97 0.4 NW 20 30 11 16 1003.1 1002.9 20.6
25/06:00pm 27.3 31.3 26.8 97 0.4 WNW 19 26 10 14 1002.5 1002.4 20.6
25/05:30pm 26.9 30.7 26.4 97 0.4 WNW 19 24 10 13 1002.6 1002.5 20.6
25/05:00pm 26.6 31.7 26.1 97 0.4 W 11 24 6 13 1002.9 1002.7 20.6
25/04:30pm 25.8 31.1 25.3 97 0.4 WSW 7 15 4 8 1003.0 1002.8 20.6
25/04:00pm 25.5 30.0 25.2 98 0.2 WSW 11 22 6 12 1003.2 1003.0 20.4
25/03:30pm 25.6 30.2 25.3 98 0.2 WSW 11 26 6 14 1003.2 1003.0 17.0
25/03:00pm 25.8 29.0 25.5 98 0.2 WNW 19 43 10 23 1003.3 1003.1 14.4
25/02:56pm 26.1 27.7 25.8 98 0.2 WNW 28 48 15 26 1003.3 1003.1 14.2
25/02:30pm 26.6 29.0 26.3 98 0.2 WNW 26 37 14 20 1003.4 1003.2 7.8
25/02:00pm 26.1 29.3 25.8 98 0.2 WNW 20 35 11 19 1003.7 1003.5 6.8
25/01:30pm 26.5 27.5 26.2 98 0.2 NW 33 50 18 27 1004.0 1003.8 4.2
25/01:16pm 27.3 28.9 26.8 97 0.4 NW 32 46 17 25 1004.0 1003.8 0.6
25/01:00pm 28.9 34.1 28.4 97 0.4 WNW 19 24 10 13 1004.2 1004.0 0.6
25/12:30pm 27.9 32.7 27.4 97 0.4 WNW 17 24 9 13 1004.8 1004.6 0.4
25/12:00pm 27.9 33.5 27.4 97 0.4 W 13 20 7 11 1004.9 1004.7 0.4
25/11:30am 27.2 31.9 26.7 97 0.4 WNW 15 22 8 12 1004.8 1004.6 0.2
25/11:00am 27.0 30.8 26.5 97 0.4 WNW 19 24 10 13 1005.4 1005.2 0.2
25/10:30am 26.6 30.5 26.1 97 0.4 WNW 17 22 9 12 1005.9 1005.7 0.2
25/10:00am 26.0 28.2 25.5 97 0.4 WNW 24 32 13 17 1006.2 1006.0 0.2
25/09:30am 25.4 28.7 25.1 98 0.2 W 17 33 9 18 1006.5 1006.3 0.2
25/09:00am 24.6 26.9 24.1 97 0.3 W 19 32 10 17 1006.6 1006.4 55.2
25/08:30am 24.3 27.3 24.0 98 0.2 W 15 28 8 15 1007.0 1006.8 54.0
25/08:09am 25.5 28.3 25.2 98 0.2 NW 20 46 11 25 1006.9 1006.7 53.6
25/08:00am 25.9 29.5 25.6 98 0.2 NNW 17 24 9 13 1006.6 1006.4 52.8
25/07:30am 25.7 28.8 25.4 98 0.2 NNW 19 24 10 13 1006.3 1006.1 51.8
25/07:00am 25.2 29.2 25.0 99 0.1 NNW 13 19 7 10 1005.7 1005.5 50.8
25/06:30am 23.4 28.0 23.2 99 0.1 SW 4 6 2 3 1005.7 1005.5 50.0
25/06:00am 23.2 27.1 22.9 98 0.2 S 7 15 4 8 1005.6 1005.4 49.4
25/05:30am 25.6 31.1 25.3 98 0.2 WNW 6 11 3 6 1005.0 1004.8 39.6
25/05:00am 25.4 30.8 25.2 99 0.1 WNW 6 9 3 5 1004.6 1004.4 39.6
25/04:30am 24.7 29.5 24.5 99 0.1 WNW 7 13 4 7 1005.0 1004.8 38.6
25/04:00am 24.1 28.5 23.8 98 0.2 SSE 7 11 4 6 1004.3 1004.1 38.0
25/03:30am 24.1 27.4 23.8 98 0.2 S 13 26 7 14 1004.8 1004.6 37.8
25/03:00am 25.6 31.2 25.4 99 0.1 SSE 6 9 3 5 1004.7 1004.5 36.8
25/02:30am 25.7 31.3 25.5 99 0.1 SE 6 9 3 5 1004.9 1004.7 36.8
25/02:00am 25.3 31.8 25.0 98 0.2 CALM 0 0 0 0 1005.2 1005.0 36.8
25/01:30am 25.5 31.3 25.2 98 0.2 WSW 4 7 2 4 1005.6 1005.4 36.8
25/01:00am 25.4 31.2 25.1 98 0.2 W 4 7 2 4 1005.9 1005.7 36.6
25/12:30am 25.5 31.4 25.3 99 0.1 WSW 4 9 2 5 1006.4 1006.2 36.0
25/12:00am 24.9 31.1 24.6 98 0.2 CALM 0 6 0 3 1006.5 1006.3 36.0
 
Date/Time
CST
Temp
°C
App
Temp
°C
Dew
Point
°C
Rel
Hum
%
Delta-T
°C
Wind Press
QNH
hPa
Press
MSL
hPa
Rain since
9am
mm
Dir  Spd
km/h
Gust
km/h
Spd
kts
Gust
kts
24/11:30pm 24.8 29.6 24.5 98 0.2 S 7 13 4 7 1007.0 1006.8 34.6
24/11:00pm 24.9 29.4 24.6 98 0.2 S 9 15 5 8 1007.2 1007.0 34.6
24/10:30pm 23.9 28.2 23.6 98 0.2 SSW 7 15 4 8 1007.2 1007.0 34.6
24/10:00pm 25.5 30.2 25.0 97 0.3 SSW 9 41 5 22 1007.2 1007.0 8.2
24/09:30pm 26.9 32.9 26.0 95 0.6 S 6 7 3 4 1006.7 1006.5 8.0
24/09:00pm 27.2 32.8 25.4 90 1.3 SSW 6 9 3 5 1006.5 1006.3 8.0
24/08:30pm 28.6 34.8 26.4 88 1.6 WSW 6 13 3 7 1006.4 1006.2 8.0
24/08:00pm 28.9 33.3 26.3 86 1.9 W 15 26 8 14 1006.0 1005.8 8.0
24/07:30pm 28.9 33.8 27.5 92 1.0 W 17 28 9 15 1005.7 1005.5 8.0
24/07:00pm 29.2 33.4 27.4 90 1.3 WNW 20 32 11 17 1005.4 1005.2 8.0
24/06:30pm 29.1 34.3 26.9 88 1.6 W 13 20 7 11 1005.1 1004.9 8.0
24/06:00pm 29.2 33.8 27.6 91 1.2 WNW 19 26 10 14 1004.8 1004.6 8.0
24/05:30pm 29.1 34.5 27.1 89 1.4 W 13 22 7 12 1004.7 1004.5 8.0
24/05:00pm 29.3 35.3 26.9 87 1.7 W 9 17 5 9 1004.5 1004.3 8.0
24/04:30pm 29.8 34.7 27.0 85 2.0 W 15 28 8 15 1004.3 1004.1 8.0
24/04:00pm 30.0 33.7 27.2 85 2.0 WNW 22 35 12 19 1004.4 1004.2 8.0
24/03:30pm 29.9 33.9 27.1 85 2.0 W 20 35 11 19 1004.8 1004.6 8.0
24/03:00pm 29.8 34.5 27.2 86 1.9 W 17 32 9 17 1005.2 1005.0 8.0
24/02:30pm 29.9 34.0 28.3 91 1.2 WNW 24 35 13 19 1005.8 1005.6 8.0
24/02:00pm 29.7 33.8 27.7 89 1.5 WNW 22 39 12 21 1006.6 1006.4 8.0
24/01:30pm 29.5 34.3 28.1 92 1.0 W 20 32 11 17 1007.2 1007.0 8.0
24/01:00pm 29.7 35.4 28.1 91 1.2 W 15 24 8 13 1007.5 1007.3 8.0
24/12:30pm 29.2 33.7 27.8 92 1.0 WNW 20 30 11 16 1007.9 1007.7 8.0
24/12:00pm 28.3 32.5 27.4 95 0.6 W 20 33 11 18 1008.2 1008.0 8.0
24/11:30am 27.0 29.9 26.5 97 0.4 WNW 24 33 13 18 1008.5 1008.3 7.6
24/11:00am 28.1 31.4 27.6 97 0.4 WNW 26 35 14 19 1008.5 1008.3 0.2
24/10:30am 29.6 32.7 27.4 88 1.6 WNW 26 39 14 21 1008.6 1008.4 0.2
24/10:00am 28.4 32.4 26.2 88 1.6 W 17 32 9 17 1008.8 1008.6 0.0
24/09:30am 28.5 33.7 26.9 91 1.1 W 13 22 7 12 1009.1 1009.0 0.0
24/09:00am 27.7 32.9 26.8 95 0.6 W 13 24 7 13 1009.2 1009.1 34.2
24/08:30am 26.9 32.9 26.4 97 0.4 W 7 13 4 7 1008.7 1008.5 34.2
24/08:00am 26.7 32.2 26.2 97 0.4 W 9 19 5 10 1008.1 1007.9 34.2
24/07:30am 26.2 31.0 25.7 97 0.4 W 11 20 6 11 1007.8 1007.6 34.2
24/07:00am 25.7 31.1 25.4 98 0.2 WSW 7 13 4 7 1007.6 1007.4 34.2
24/06:30am 25.3 30.6 25.0 98 0.2 SW 6 11 3 6 1007.4 1007.2 34.2
24/06:00am 25.0 29.6 24.7 98 0.2 SW 9 19 5 10 1007.4 1007.2 34.2
24/05:30am 24.6 29.0 24.4 99 0.1 S 9 17 5 9 1007.4 1007.2 34.2
24/05:00am 24.5 29.3 24.2 98 0.2 S 6 9 3 5 1006.9 1006.7 34.2
24/04:30am 24.3 29.4 24.0 98 0.2 WSW 4 6 2 3 1006.7 1006.5 34.2
24/04:00am 24.4 29.5 24.1 98 0.2 W 4 7 2 4 1006.9 1006.7 34.2
24/03:30am 24.8 28.9 24.5 98 0.2 WNW 11 17 6 9 1007.1 1006.9 34.0
24/03:00am 24.5 29.1 24.2 98 0.2 W 7 17 4 9 1007.6 1007.4 32.2
24/02:30am 24.9 30.0 24.6 98 0.2 WSW 6 15 3 8 1008.1 1007.9 27.4
24/02:00am 25.1 26.5 24.8 98 0.2 WNW 26 35 14 19 1008.3 1008.1 21.8
24/01:33am 25.3 28.1 25.0 98 0.2 WNW 19 43 10 23 1008.8 1008.6 18.6
24/01:30am 26.2 30.8 25.9 98 0.2 W 13 24 7 13 1008.9 1008.7 18.4
24/01:00am 26.3 32.1 25.8 97 0.4 WSW 6 15 3 8 1009.1 1009.0 16.4
24/12:30am 26.6 30.2 26.1 97 0.4 WNW 19 24 10 13 1009.2 1009.1 16.4
24/12:00am 25.6 30.4 25.1 97 0.3 WSW 9 17 5 9 1009.2 1009.1 16.2
 
Date/Time
CST
Temp
°C
App
Temp
°C
Dew
Point
°C
Rel
Hum
%
Delta-T
°C
Wind Press
QNH
hPa
Press
MSL
hPa
Rain since
9am
mm
Dir  Spd
km/h
Gust
km/h
Spd
kts
Gust
kts
23/11:30pm 27.3 33.6 26.8 97 0.4 W 7 19 4 10 1009.5 1009.4 16.0
23/11:00pm 27.0 33.1 26.5 97 0.4 W 7 17 4 9 1009.2 1009.1 16.0
23/10:30pm 27.5 32.8 27.0 97 0.4 WNW 13 17 7 9 1009.0 1008.9 16.0
23/10:00pm 27.2 32.7 26.7 97 0.4 WNW 11 19 6 10 1008.6 1008.4 16.0
23/09:30pm 26.7 31.8 26.2 97 0.4 WNW 11 17 6 9 1008.8 1008.6 16.0
23/09:00pm 26.7 31.5 26.2 97 0.4 WNW 13 20 7 11 1008.9 1008.7 15.8
23/08:30pm 26.2 31.5 25.9 98 0.2 WNW 9 15 5 8 1008.7 1008.5 15.6
23/08:00pm 26.5 31.3 26.2 98 0.2 NW 13 19 7 10 1008.4 1008.2 15.4
23/07:30pm 25.8 31.2 25.5 98 0.2 WNW 7 11 4 6 1007.7 1007.5 15.0
23/07:00pm 25.2 31.3 25.0 99 0.1 W 2 6 1 3 1007.1 1006.9 15.0

Latest Capital City Observations: Canberra | Sydney | Melbourne | Brisbane | Adelaide | Perth | Hobart | Darwin

Other formats

Comma delimited format used in spreadsheet applications
http://www.bom.gov.au/fwo/IDD60901/IDD60901.99510.axf

JavaScript Object Notation format (JSON) in row-major order
http://www.bom.gov.au/fwo/IDD60901/IDD60901.99510.json

Data quality

Most of these data are generated automatically and are frequently updated. Quality checks on data are not normally performed. It is possible for incorrect values to appear. Refer to information at About Latest Weather Observations and please check the disclaimer before using these data.